createdAt,value
2023-12-14T00:00:13.734Z,4.05
2023-12-14T00:01:13.810Z,4.03
2023-12-14T00:02:13.812Z,4.00
2023-12-14T00:03:13.787Z,3.97
2023-12-14T00:04:13.777Z,3.96
2023-12-14T00:05:13.868Z,3.96
2023-12-14T00:06:13.823Z,3.96
2023-12-14T00:07:13.752Z,3.96
2023-12-14T00:08:13.848Z,3.94
2023-12-14T00:09:13.758Z,3.94
2023-12-14T00:10:13.737Z,3.92
2023-12-14T00:11:13.825Z,3.92
2023-12-14T00:12:13.756Z,3.92
2023-12-14T00:13:13.772Z,3.92
2023-12-14T00:14:13.908Z,3.91
2023-12-14T00:15:13.857Z,3.88
2023-12-14T00:16:13.774Z,3.87
2023-12-14T00:17:13.836Z,3.85
2023-12-14T00:18:13.778Z,3.85
2023-12-14T00:19:13.849Z,3.86
2023-12-14T00:20:13.843Z,3.89
2023-12-14T00:21:13.804Z,3.90
2023-12-14T00:22:13.768Z,3.92
2023-12-14T00:23:13.869Z,3.91
2023-12-14T00:24:13.806Z,3.89
2023-12-14T00:25:13.763Z,3.92
2023-12-14T00:26:13.836Z,3.94
2023-12-14T00:27:13.857Z,3.95
2023-12-14T00:28:35.130Z,3.97
2023-12-14T00:29:35.185Z,3.98
2023-12-14T00:30:35.079Z,3.97
2023-12-14T00:31:35.160Z,3.98
2023-12-14T00:32:35.316Z,3.96
2023-12-14T00:33:35.122Z,3.93
2023-12-14T00:34:35.090Z,3.89
2023-12-14T00:35:35.093Z,3.84
2023-12-14T00:36:35.077Z,3.76
2023-12-14T00:37:35.169Z,3.74
2023-12-14T00:38:35.147Z,3.74
2023-12-14T00:39:35.272Z,3.75
2023-12-14T00:40:35.194Z,3.78
2023-12-14T00:41:35.133Z,3.77
2023-12-14T00:42:35.446Z,3.79
2023-12-14T00:43:35.134Z,3.78
2023-12-14T00:44:35.150Z,3.78
2023-12-14T00:45:35.134Z,3.79
2023-12-14T00:46:35.169Z,3.80
2023-12-14T00:47:35.146Z,3.83
2023-12-14T00:48:35.238Z,3.84
2023-12-14T00:49:35.189Z,3.87
2023-12-14T00:50:35.119Z,3.87
2023-12-14T00:51:35.160Z,3.91
2023-12-14T00:52:35.306Z,3.93
2023-12-14T00:53:35.120Z,3.93
2023-12-14T00:54:35.184Z,3.92
2023-12-14T00:55:35.228Z,3.94
2023-12-14T00:56:35.145Z,3.92
2023-12-14T00:57:35.186Z,3.91
2023-12-14T00:58:35.172Z,3.90
2023-12-14T00:59:35.293Z,3.87
2023-12-14T01:00:35.145Z,3.86
2023-12-14T01:01:35.226Z,3.86
2023-12-14T01:02:35.458Z,3.84
2023-12-14T01:03:35.154Z,3.86
2023-12-14T01:04:35.330Z,3.87
2023-12-14T01:05:35.343Z,3.88
2023-12-14T01:06:35.266Z,3.88
2023-12-14T01:07:35.365Z,3.87
2023-12-14T01:08:35.312Z,3.86
2023-12-14T01:09:35.356Z,3.84
2023-12-14T01:10:35.355Z,3.81
2023-12-14T01:11:35.343Z,3.80
2023-12-14T01:12:35.523Z,3.80
2023-12-14T01:13:35.388Z,3.79
2023-12-14T01:14:35.444Z,3.79
2023-12-14T01:15:35.413Z,3.79
2023-12-14T01:16:35.431Z,3.80
2023-12-14T01:17:35.451Z,3.80
2023-12-14T01:18:35.520Z,3.81
2023-12-14T01:19:35.465Z,3.82
2023-12-14T01:20:35.477Z,3.85
2023-12-14T01:21:35.476Z,3.86
2023-12-14T01:22:35.641Z,3.88
2023-12-14T01:23:35.501Z,3.89
2023-12-14T01:24:35.513Z,3.89
2023-12-14T01:25:35.567Z,3.90
2023-12-14T01:26:35.524Z,3.92
2023-12-14T01:27:35.534Z,3.93
2023-12-14T01:28:35.589Z,3.95
2023-12-14T01:29:35.567Z,3.92
2023-12-14T01:30:35.612Z,3.91
2023-12-14T01:31:35.673Z,3.89
2023-12-14T01:32:35.817Z,3.89
2023-12-14T01:33:35.618Z,3.90
2023-12-14T01:34:35.704Z,3.90
2023-12-14T01:35:35.686Z,3.91
2023-12-14T01:36:35.652Z,3.93
2023-12-14T01:37:35.696Z,3.94
2023-12-14T01:38:35.684Z,3.95
2023-12-14T01:39:35.700Z,3.97
2023-12-14T01:40:35.841Z,3.97
2023-12-14T01:41:35.716Z,3.97
2023-12-14T01:42:36.030Z,3.99
2023-12-14T01:43:35.773Z,3.98
2023-12-14T01:44:35.834Z,3.99
2023-12-14T01:45:35.883Z,3.98
2023-12-14T01:46:35.892Z,4.01
2023-12-14T01:47:35.881Z,3.99
2023-12-14T01:48:35.915Z,4.00
2023-12-14T01:49:35.891Z,4.01
2023-12-14T01:50:35.858Z,4.02
2023-12-14T01:51:35.862Z,4.04
2023-12-14T01:52:36.073Z,4.06
2023-12-14T01:53:35.859Z,4.07
2023-12-14T01:54:35.879Z,4.08
2023-12-14T01:55:35.893Z,4.11
2023-12-14T01:56:35.911Z,4.12
2023-12-14T01:57:35.925Z,4.14
2023-12-14T01:58:36.004Z,4.13
2023-12-14T01:59:36.307Z,4.14
2023-12-14T02:00:35.924Z,4.15
2023-12-14T02:01:35.996Z,4.18
2023-12-14T02:02:36.244Z,4.21
2023-12-14T02:03:36.150Z,4.21
2023-12-14T02:04:36.025Z,4.22
2023-12-14T02:05:36.085Z,4.24
2023-12-14T02:06:36.214Z,4.21
2023-12-14T02:07:36.069Z,4.22
2023-12-14T02:08:36.052Z,4.22
2023-12-14T02:09:36.025Z,4.24
2023-12-14T02:10:36.119Z,4.25
2023-12-14T02:11:36.299Z,4.26
2023-12-14T02:12:36.379Z,4.24
2023-12-14T02:13:36.136Z,4.25
2023-12-14T02:14:36.076Z,4.25
2023-12-14T02:15:36.138Z,4.25
2023-12-14T02:16:36.166Z,4.25
2023-12-14T02:17:36.194Z,4.24
2023-12-14T02:18:36.263Z,4.25
2023-12-14T02:19:36.190Z,4.25
2023-12-14T02:20:36.158Z,4.22
2023-12-14T02:21:36.207Z,4.20
2023-12-14T02:22:36.481Z,4.15
2023-12-14T02:23:36.238Z,4.14
2023-12-14T02:24:36.257Z,4.16
2023-12-14T02:25:36.291Z,4.16
2023-12-14T02:26:36.261Z,4.14
2023-12-14T02:27:36.331Z,4.14
2023-12-14T02:28:36.338Z,4.14
2023-12-14T02:29:36.282Z,4.13
2023-12-14T02:30:36.346Z,4.12
2023-12-14T02:31:36.346Z,4.12
2023-12-14T02:32:36.666Z,4.09
2023-12-14T02:33:36.348Z,4.07
2023-12-14T02:34:36.372Z,4.07
2023-12-14T02:35:36.351Z,4.06
2023-12-14T02:36:36.384Z,4.04
2023-12-14T02:37:36.441Z,4.04
2023-12-14T02:38:36.528Z,4.05
2023-12-14T02:39:36.427Z,4.05
2023-12-14T02:40:36.463Z,4.06
2023-12-14T02:41:36.449Z,4.06
2023-12-14T02:42:36.777Z,4.06
2023-12-14T02:43:36.535Z,4.09
2023-12-14T02:44:36.471Z,4.10
2023-12-14T02:45:36.465Z,4.12
2023-12-14T02:46:36.505Z,4.13
2023-12-14T02:47:36.561Z,4.13
2023-12-14T02:48:36.630Z,4.14
2023-12-14T02:49:36.622Z,4.16
2023-12-14T02:50:36.559Z,4.17
2023-12-14T02:51:36.552Z,4.16
2023-12-14T02:52:36.815Z,4.15
2023-12-14T02:53:36.571Z,4.16
2023-12-14T02:54:36.619Z,4.17
2023-12-14T02:55:36.601Z,4.17
2023-12-14T02:56:36.645Z,4.19
2023-12-14T02:57:36.607Z,4.19
2023-12-14T02:58:36.670Z,4.22
2023-12-14T02:59:36.666Z,4.24
2023-12-14T03:00:36.670Z,4.26
2023-12-14T03:01:36.719Z,4.28
2023-12-14T03:02:36.924Z,4.32
2023-12-14T03:03:36.670Z,4.36
2023-12-14T03:04:36.705Z,4.36
2023-12-14T03:05:36.730Z,4.39
2023-12-14T03:06:36.735Z,4.39
2023-12-14T03:07:36.761Z,4.35
2023-12-14T03:08:36.735Z,4.30
2023-12-14T03:09:36.763Z,4.29
2023-12-14T03:10:36.812Z,4.30
2023-12-14T03:11:36.802Z,4.31
2023-12-14T03:12:36.966Z,4.31
2023-12-14T03:13:36.856Z,4.32
2023-12-14T03:14:37.862Z,4.33
2023-12-14T03:15:36.798Z,4.35
2023-12-14T03:16:36.930Z,4.37
2023-12-14T03:17:36.850Z,4.39
2023-12-14T03:18:36.990Z,4.41
2023-12-14T03:19:36.915Z,4.40
2023-12-14T03:20:36.876Z,4.39
2023-12-14T03:21:36.907Z,4.37
2023-12-14T03:22:37.140Z,4.38
2023-12-14T03:23:36.887Z,4.38
2023-12-14T03:24:36.944Z,4.39
2023-12-14T03:25:37.002Z,4.41
2023-12-14T03:26:36.962Z,4.42
2023-12-14T03:27:37.003Z,4.43
2023-12-14T03:28:37.034Z,4.45
2023-12-14T03:29:36.997Z,4.45
2023-12-14T03:30:37.048Z,4.45
2023-12-14T03:31:37.073Z,4.45
2023-12-14T03:32:37.382Z,4.44
2023-12-14T03:33:37.090Z,4.44
2023-12-14T03:34:37.083Z,4.44
2023-12-14T03:35:37.089Z,4.46
2023-12-14T03:36:37.088Z,4.46
2023-12-14T03:37:37.126Z,4.46
2023-12-14T03:38:37.082Z,4.47
2023-12-14T03:39:37.088Z,4.50
2023-12-14T03:40:37.173Z,4.53
2023-12-14T03:41:37.117Z,4.54
2023-12-14T03:42:37.455Z,4.56
2023-12-14T03:43:37.283Z,4.59
2023-12-14T03:44:37.240Z,4.61
2023-12-14T03:45:37.249Z,4.62
2023-12-14T03:46:37.261Z,4.63
2023-12-14T03:47:37.326Z,4.62
2023-12-14T03:48:37.257Z,4.62
2023-12-14T03:49:37.228Z,4.61
2023-12-14T03:50:37.296Z,4.61
2023-12-14T03:51:37.292Z,4.60
2023-12-14T03:52:37.560Z,4.61
2023-12-14T03:53:37.277Z,4.61
2023-12-14T03:54:37.362Z,4.60
2023-12-14T03:55:37.379Z,4.61
2023-12-14T03:56:37.379Z,4.60
2023-12-14T03:57:37.337Z,4.60
2023-12-14T03:58:37.357Z,4.61
2023-12-14T03:59:37.369Z,4.62
2023-12-14T04:00:37.434Z,4.61
2023-12-14T04:01:37.440Z,4.62
2023-12-14T04:02:37.654Z,4.64
2023-12-14T04:03:37.399Z,4.65
2023-12-14T04:04:37.411Z,4.67
2023-12-14T04:05:37.527Z,4.68
2023-12-14T04:06:37.419Z,4.69
2023-12-14T04:07:37.525Z,4.70
2023-12-14T04:08:37.491Z,4.73
2023-12-14T04:09:37.491Z,4.74
2023-12-14T04:10:37.546Z,4.75
2023-12-14T04:11:37.477Z,4.77
2023-12-14T04:12:37.696Z,4.79
2023-12-14T04:13:37.565Z,4.80
2023-12-14T04:14:37.527Z,4.80
2023-12-14T04:15:37.570Z,4.80
2023-12-14T04:16:37.637Z,4.81
2023-12-14T04:17:37.830Z,4.83
2023-12-14T04:18:37.644Z,4.84
2023-12-14T04:19:37.626Z,4.86
2023-12-14T04:20:37.638Z,4.88
2023-12-14T04:21:37.664Z,4.89
2023-12-14T04:22:37.932Z,4.92
2023-12-14T04:23:37.792Z,4.92
2023-12-14T04:24:37.681Z,4.94
2023-12-14T04:25:37.683Z,4.94
2023-12-14T04:26:37.722Z,4.97
2023-12-14T04:27:37.660Z,4.97
2023-12-14T04:28:37.724Z,4.99
2023-12-14T04:29:37.728Z,4.99
2023-12-14T04:30:37.852Z,4.98
2023-12-14T04:31:37.776Z,4.99
2023-12-14T04:32:37.750Z,4.99
2023-12-14T04:33:37.813Z,4.99
2023-12-14T04:34:37.762Z,4.99
2023-12-14T04:35:38.100Z,5.01
2023-12-14T04:36:37.781Z,5.02
2023-12-14T04:37:37.839Z,5.03
2023-12-14T04:38:37.815Z,5.03
2023-12-14T04:39:37.853Z,5.05
2023-12-14T04:40:38.850Z,5.04
2023-12-14T04:41:37.830Z,5.03
2023-12-14T04:42:38.134Z,5.03
2023-12-14T04:43:37.892Z,5.05
2023-12-14T04:44:37.901Z,5.05
2023-12-14T04:45:38.255Z,5.04
2023-12-14T04:46:37.938Z,5.02
2023-12-14T04:47:37.960Z,5.00
2023-12-14T04:48:38.001Z,4.98
2023-12-14T04:49:37.959Z,4.94
2023-12-14T04:50:38.248Z,4.93
2023-12-14T04:51:38.018Z,4.94
2023-12-14T04:52:38.259Z,4.96
2023-12-14T04:53:37.984Z,4.97
2023-12-14T04:54:37.978Z,4.97
2023-12-14T04:55:38.089Z,4.97
2023-12-14T04:56:38.098Z,4.99
2023-12-14T04:57:38.046Z,4.99
2023-12-14T04:58:38.074Z,5.00
2023-12-14T04:59:38.045Z,5.00
2023-12-14T05:00:38.075Z,5.01
2023-12-14T05:01:38.109Z,5.03
2023-12-14T05:02:38.209Z,5.06
2023-12-14T05:03:38.118Z,5.09
2023-12-14T05:04:38.203Z,5.10
2023-12-14T05:05:38.151Z,5.11
2023-12-14T05:06:38.333Z,5.12
2023-12-14T05:07:38.241Z,5.13
2023-12-14T05:08:38.173Z,5.12
2023-12-14T05:09:38.179Z,5.10
2023-12-14T05:10:38.231Z,5.10
2023-12-14T05:11:38.258Z,5.10
2023-12-14T05:12:38.484Z,5.10
2023-12-14T05:13:38.273Z,5.11
2023-12-14T05:14:38.240Z,5.11
2023-12-14T05:15:38.256Z,5.12
2023-12-14T05:16:38.322Z,5.13
2023-12-14T05:17:38.500Z,5.16
2023-12-14T05:18:38.330Z,5.18
2023-12-14T05:19:38.386Z,5.19
2023-12-14T05:20:38.344Z,5.21
2023-12-14T05:21:38.371Z,5.22
2023-12-14T05:22:38.641Z,5.23
2023-12-14T05:23:38.347Z,5.21
2023-12-14T05:24:38.399Z,5.20
2023-12-14T05:25:38.388Z,5.20
2023-12-14T05:26:38.412Z,5.21
2023-12-14T05:27:38.430Z,5.22
2023-12-14T05:28:38.500Z,5.25
2023-12-14T05:29:38.460Z,5.27
2023-12-14T05:30:38.440Z,5.29
2023-12-14T05:31:38.463Z,5.31
2023-12-14T05:32:38.894Z,5.34
2023-12-14T05:33:38.553Z,5.35
2023-12-14T05:34:38.508Z,5.36
2023-12-14T05:35:38.468Z,5.35
2023-12-14T05:36:38.506Z,5.35
2023-12-14T05:37:38.559Z,5.35
2023-12-14T05:38:38.547Z,5.35
2023-12-14T05:39:38.532Z,5.35
2023-12-14T05:40:38.580Z,5.35
2023-12-14T05:41:38.549Z,5.34
2023-12-14T05:42:38.790Z,5.32
2023-12-14T05:43:38.665Z,5.28
2023-12-14T05:44:38.637Z,5.28
2023-12-14T05:45:38.644Z,5.28
2023-12-14T05:46:38.667Z,5.29
2023-12-14T05:47:38.645Z,5.32
2023-12-14T05:48:38.790Z,5.32
2023-12-14T05:49:38.702Z,5.33
2023-12-14T05:50:38.650Z,5.34
2023-12-14T05:51:38.706Z,5.36
2023-12-14T05:52:38.966Z,5.37
2023-12-14T05:53:38.742Z,5.39
2023-12-14T05:54:38.745Z,5.40
2023-12-14T05:55:38.752Z,5.39
2023-12-14T05:56:40.400Z,5.41
2023-12-14T05:57:38.764Z,5.41
2023-12-14T05:58:38.958Z,5.40
2023-12-14T05:59:38.805Z,5.39
2023-12-14T06:00:38.884Z,5.40
2023-12-14T06:01:38.920Z,5.40
2023-12-14T06:02:39.298Z,5.39
2023-12-14T06:03:38.870Z,5.40
2023-12-14T06:04:39.387Z,5.40
2023-12-14T06:05:38.957Z,5.40
2023-12-14T06:06:38.889Z,5.41
2023-12-14T06:07:38.950Z,5.40
2023-12-14T06:08:38.891Z,5.41
2023-12-14T06:09:38.945Z,5.42
2023-12-14T06:10:38.945Z,5.42
2023-12-14T06:11:38.937Z,5.43
2023-12-14T06:12:38.914Z,5.43
2023-12-14T06:13:39.022Z,5.44
2023-12-14T06:14:38.997Z,5.42
2023-12-14T06:15:38.941Z,5.40
2023-12-14T06:16:38.977Z,5.41
2023-12-14T06:17:39.033Z,5.42
2023-12-14T06:18:39.052Z,5.42
2023-12-14T06:19:39.731Z,5.44
2023-12-14T06:20:39.014Z,5.43
2023-12-14T06:21:39.051Z,5.43
2023-12-14T06:22:39.212Z,5.45
2023-12-14T06:23:39.067Z,5.45
2023-12-14T06:24:39.101Z,5.46
2023-12-14T06:25:39.133Z,5.46
2023-12-14T06:26:39.127Z,5.50
2023-12-14T06:27:39.126Z,5.50
2023-12-14T06:28:39.118Z,5.51
2023-12-14T06:29:39.181Z,5.52
2023-12-14T06:30:39.369Z,5.54
2023-12-14T06:31:39.175Z,5.54
2023-12-14T06:32:39.638Z,5.56
2023-12-14T06:33:39.276Z,5.58
2023-12-14T06:34:39.229Z,5.59
2023-12-14T06:35:39.359Z,5.61
2023-12-14T06:36:39.223Z,5.63
2023-12-14T06:37:39.302Z,5.63
2023-12-14T06:38:39.253Z,5.64
2023-12-14T06:39:39.224Z,5.66
2023-12-14T06:40:39.316Z,5.67
2023-12-14T06:41:39.302Z,5.68
2023-12-14T06:42:39.459Z,5.69
2023-12-14T06:43:39.360Z,5.70
2023-12-14T06:44:39.319Z,5.70
2023-12-14T06:45:39.370Z,5.71
2023-12-14T06:46:39.406Z,5.72
2023-12-14T06:47:39.434Z,5.73
2023-12-14T06:48:39.528Z,5.75
2023-12-14T06:49:39.420Z,5.75
2023-12-14T06:50:39.376Z,5.76
2023-12-14T06:51:39.386Z,5.78
2023-12-14T06:52:39.646Z,5.79
2023-12-14T06:53:39.450Z,5.82
2023-12-14T06:54:39.445Z,5.83
2023-12-14T06:55:39.476Z,5.84
2023-12-14T06:56:39.480Z,5.86
2023-12-14T06:57:39.508Z,5.86
2023-12-14T06:58:39.544Z,5.87
2023-12-14T06:59:39.586Z,5.88
2023-12-14T07:00:39.522Z,5.86
2023-12-14T07:01:39.530Z,5.86
2023-12-14T07:02:39.517Z,5.87
2023-12-14T07:03:39.590Z,5.87
2023-12-14T07:04:39.608Z,5.89
2023-12-14T07:05:39.589Z,5.88
2023-12-14T07:06:39.576Z,5.89
2023-12-14T07:07:39.615Z,5.89
2023-12-14T07:09:39.638Z,5.90
2023-12-14T07:10:39.588Z,5.91
2023-12-14T07:11:39.603Z,5.89
2023-12-14T07:12:39.867Z,5.89
2023-12-14T07:13:39.685Z,5.90
2023-12-14T07:14:39.629Z,5.91
2023-12-14T07:15:39.629Z,5.90
2023-12-14T07:16:39.672Z,5.90
2023-12-14T07:17:39.655Z,5.92
2023-12-14T07:18:39.740Z,5.92
2023-12-14T07:19:39.638Z,5.92
2023-12-14T07:20:39.621Z,5.92
2023-12-14T07:21:39.617Z,5.92
2023-12-14T07:22:39.696Z,5.91
2023-12-14T07:23:39.614Z,5.91
2023-12-14T07:24:44.996Z,5.92
2023-12-14T07:25:39.679Z,5.93
2023-12-14T07:26:39.608Z,5.92
2023-12-14T07:27:39.617Z,5.93
2023-12-14T07:28:39.657Z,5.97
2023-12-14T07:29:39.614Z,5.98
2023-12-14T07:30:39.641Z,5.99
2023-12-14T07:31:39.641Z,6.00
2023-12-14T07:32:39.865Z,6.01
2023-12-14T07:33:39.758Z,6.03
2023-12-14T07:34:39.677Z,6.04
2023-12-14T07:35:39.633Z,6.06
2023-12-14T07:36:39.605Z,6.07
2023-12-14T07:37:39.664Z,6.08
2023-12-14T07:38:39.711Z,6.09
2023-12-14T07:39:39.658Z,6.12
2023-12-14T07:40:39.612Z,6.14
2023-12-14T07:41:39.648Z,6.14
2023-12-14T07:42:39.781Z,6.17
2023-12-14T07:43:39.657Z,6.17
2023-12-14T07:44:39.653Z,6.19
2023-12-14T07:45:39.632Z,6.18
2023-12-14T07:46:39.648Z,6.21
2023-12-14T07:47:39.656Z,6.21
2023-12-14T07:48:39.715Z,6.23
2023-12-14T07:49:39.713Z,6.25
2023-12-14T07:50:39.638Z,6.26
2023-12-14T07:51:39.646Z,6.27
2023-12-14T07:52:39.846Z,6.28
2023-12-14T07:53:39.664Z,6.28
2023-12-14T07:54:39.694Z,6.29
2023-12-14T07:55:39.868Z,6.30
2023-12-14T07:56:39.643Z,6.30
2023-12-14T07:57:39.665Z,6.32
2023-12-14T07:58:39.750Z,6.30
2023-12-14T07:59:39.692Z,6.30
2023-12-14T08:00:39.676Z,6.30
2023-12-14T08:01:39.855Z,6.28
2023-12-14T08:02:39.644Z,6.28
2023-12-14T08:03:39.722Z,6.28
2023-12-14T08:04:39.707Z,6.28
2023-12-14T08:05:40.313Z,6.29
2023-12-14T08:06:39.792Z,6.30
2023-12-14T08:07:39.701Z,6.32
2023-12-14T08:08:39.824Z,6.32
2023-12-14T08:09:39.655Z,6.32
2023-12-14T08:10:39.759Z,6.34
2023-12-14T08:11:39.660Z,6.34
2023-12-14T08:12:39.830Z,6.34
2023-12-14T08:13:41.475Z,6.33
2023-12-14T08:14:39.653Z,6.34
2023-12-14T08:15:39.675Z,6.34
2023-12-14T08:16:39.720Z,6.35
2023-12-14T08:17:39.676Z,6.35
2023-12-14T08:18:39.754Z,6.35
2023-12-14T08:19:39.715Z,6.36
2023-12-14T08:20:39.671Z,6.36
2023-12-14T08:21:39.674Z,6.37
2023-12-14T08:22:39.712Z,6.38
2023-12-14T08:23:39.675Z,6.39
2023-12-14T08:24:39.691Z,6.40
2023-12-14T08:25:39.751Z,6.40
2023-12-14T08:26:39.700Z,6.42
2023-12-14T08:27:39.694Z,6.42
2023-12-14T08:28:39.762Z,6.44
2023-12-14T08:29:39.687Z,6.45
2023-12-14T08:30:39.715Z,6.46
2023-12-14T08:31:39.737Z,6.46
2023-12-14T08:32:40.206Z,6.47
2023-12-14T08:33:39.705Z,6.48
2023-12-14T08:34:39.708Z,6.50
2023-12-14T08:35:39.693Z,6.52
2023-12-14T08:36:39.697Z,6.52
2023-12-14T08:37:39.748Z,6.54
2023-12-14T08:38:39.711Z,6.58
2023-12-14T08:39:39.727Z,6.59
2023-12-14T08:40:39.854Z,6.63
2023-12-14T08:41:39.738Z,6.64
2023-12-14T08:42:39.737Z,6.64
2023-12-14T08:43:39.740Z,6.65
2023-12-14T08:44:39.700Z,6.66
2023-12-14T08:45:39.704Z,6.65
2023-12-14T08:46:39.793Z,6.67
2023-12-14T08:47:39.763Z,6.66
2023-12-14T08:48:39.752Z,6.67
2023-12-14T08:49:39.717Z,6.66
2023-12-14T08:50:39.692Z,6.67
2023-12-14T08:51:39.695Z,6.67
2023-12-14T08:52:39.766Z,6.68
2023-12-14T08:53:39.716Z,6.67
2023-12-14T08:54:39.762Z,6.69
2023-12-14T08:55:39.719Z,6.69
2023-12-14T08:56:39.732Z,6.71
2023-12-14T08:57:40.177Z,6.72
2023-12-14T08:58:39.733Z,6.72
2023-12-14T08:59:41.113Z,6.72
2023-12-14T09:00:40.943Z,6.74
2023-12-14T09:01:39.825Z,6.75
2023-12-14T09:02:40.068Z,6.75
2023-12-14T09:03:39.767Z,6.74
2023-12-14T09:04:39.728Z,6.72
2023-12-14T09:05:39.750Z,6.73
2023-12-14T09:06:39.723Z,6.73
2023-12-14T09:07:39.746Z,6.72
2023-12-14T09:08:39.705Z,6.72
2023-12-14T09:09:39.714Z,6.70
2023-12-14T09:10:39.743Z,6.70
2023-12-14T09:11:39.710Z,6.69
2023-12-14T09:12:39.732Z,6.69
2023-12-14T09:13:39.766Z,6.67
2023-12-14T09:14:39.714Z,6.67
2023-12-14T09:15:39.693Z,6.68
2023-12-14T09:16:39.778Z,6.66
2023-12-14T09:17:40.351Z,6.64
2023-12-14T09:18:39.805Z,6.60
2023-12-14T09:19:39.739Z,6.58
2023-12-14T09:20:39.730Z,6.55
2023-12-14T09:21:44.632Z,6.58
2023-12-14T09:22:39.785Z,6.60
2023-12-14T09:23:39.708Z,6.60
2023-12-14T09:24:39.743Z,6.61
2023-12-14T09:25:39.764Z,6.61
2023-12-14T09:26:39.752Z,6.61
2023-12-14T09:27:40.481Z,6.61
2023-12-14T09:28:39.904Z,6.60
2023-12-14T09:29:39.718Z,6.62
2023-12-14T09:30:39.798Z,6.67
2023-12-14T09:31:39.871Z,6.70
2023-12-14T09:32:39.833Z,6.70
2023-12-14T09:33:39.784Z,6.71
2023-12-14T09:34:39.772Z,6.71
2023-12-14T09:35:39.741Z,6.72
2023-12-14T09:36:39.745Z,6.71
2023-12-14T09:37:40.155Z,6.72
2023-12-14T09:38:39.748Z,6.71
2023-12-14T09:39:39.736Z,6.72
2023-12-14T09:40:39.775Z,6.73
2023-12-14T09:41:39.840Z,6.71
2023-12-14T09:42:39.770Z,6.71
2023-12-14T09:43:39.790Z,6.67
2023-12-14T09:44:39.740Z,6.71
2023-12-14T09:45:39.744Z,6.69
2023-12-14T09:46:39.836Z,6.70
2023-12-14T09:47:40.575Z,6.71
2023-12-14T09:48:39.780Z,6.70
2023-12-14T09:49:39.783Z,6.70
2023-12-14T09:50:39.752Z,6.71
2023-12-14T09:51:39.744Z,6.71
2023-12-14T09:52:39.929Z,6.71
2023-12-14T09:53:39.843Z,6.73
2023-12-14T09:54:39.758Z,6.72
2023-12-14T09:55:39.762Z,6.71
2023-12-14T09:56:39.762Z,6.73
2023-12-14T09:57:39.813Z,6.72
2023-12-14T09:58:39.816Z,6.73
2023-12-14T09:59:39.781Z,6.74
2023-12-14T10:00:39.852Z,6.74
2023-12-14T10:01:39.791Z,6.74
2023-12-14T10:02:39.795Z,6.75
2023-12-14T10:03:39.878Z,6.75
2023-12-14T10:04:40.009Z,6.77
2023-12-14T10:05:39.958Z,6.79
2023-12-14T10:06:39.808Z,6.81
2023-12-14T10:07:39.983Z,6.83
2023-12-14T10:08:39.852Z,6.83
2023-12-14T10:09:39.843Z,6.85
2023-12-14T10:10:39.807Z,6.85
2023-12-14T10:11:39.793Z,6.86
2023-12-14T10:12:39.771Z,6.89
2023-12-14T10:13:40.184Z,6.86
2023-12-14T10:14:39.816Z,6.83
2023-12-14T10:15:39.793Z,6.84
2023-12-14T10:16:39.821Z,6.81
2023-12-14T10:17:40.235Z,6.79
2023-12-14T10:18:39.925Z,6.82
2023-12-14T10:19:39.933Z,6.80
2023-12-14T10:20:39.850Z,6.78
2023-12-14T10:21:39.808Z,6.81
2023-12-14T10:22:39.834Z,6.81
2023-12-14T10:23:39.808Z,6.80
2023-12-14T10:24:39.795Z,6.81
2023-12-14T10:25:39.812Z,6.81
2023-12-14T10:26:39.820Z,6.80
2023-12-14T10:27:39.825Z,6.81
2023-12-14T10:28:39.863Z,6.80
2023-12-14T10:29:39.825Z,6.81
2023-12-14T10:30:39.860Z,6.81
2023-12-14T10:31:39.823Z,6.81
2023-12-14T10:32:39.979Z,6.85
2023-12-14T10:33:39.876Z,6.87
2023-12-14T10:34:39.830Z,6.90
2023-12-14T10:35:39.818Z,6.92
2023-12-14T10:36:39.817Z,6.95
2023-12-14T10:37:39.808Z,6.97
2023-12-14T10:38:39.835Z,6.98
2023-12-14T10:39:39.861Z,6.99
2023-12-14T10:40:39.857Z,6.99
2023-12-14T10:41:39.804Z,6.98
2023-12-14T10:42:39.994Z,6.98
2023-12-14T10:43:48.532Z,6.97
2023-12-14T10:44:59.378Z,6.98
2023-12-14T10:45:39.895Z,7.01
2023-12-14T10:46:39.857Z,7.01
2023-12-14T10:47:40.233Z,7.00
2023-12-14T10:48:39.902Z,6.99
2023-12-14T10:49:39.936Z,7.00
2023-12-14T10:50:39.814Z,7.03
2023-12-14T10:51:39.836Z,7.04
2023-12-14T10:52:39.896Z,7.06
2023-12-14T10:53:39.829Z,7.06
2023-12-14T10:54:39.971Z,7.04
2023-12-14T10:55:39.879Z,7.04
2023-12-14T10:56:39.833Z,7.06
2023-12-14T10:57:41.768Z,7.05
2023-12-14T10:58:39.849Z,7.05
2023-12-14T10:59:39.859Z,7.06
2023-12-14T11:00:40.111Z,7.08
2023-12-14T11:01:39.872Z,7.10
2023-12-14T11:02:39.834Z,7.11
2023-12-14T11:03:39.828Z,7.11
2023-12-14T11:04:39.969Z,7.12
2023-12-14T11:05:39.903Z,7.13
2023-12-14T11:06:39.873Z,7.10
2023-12-14T11:07:39.864Z,7.07
2023-12-14T11:08:42.221Z,7.06
2023-12-14T11:09:39.854Z,7.07
2023-12-14T11:10:39.922Z,7.07
2023-12-14T11:11:39.884Z,7.05
2023-12-14T11:12:39.826Z,7.03
2023-12-14T11:13:39.883Z,7.02
2023-12-14T11:14:39.848Z,7.03
2023-12-14T11:15:39.852Z,7.03
2023-12-14T11:16:39.895Z,7.02
2023-12-14T11:17:40.133Z,7.01
2023-12-14T11:18:39.887Z,6.98
2023-12-14T11:19:39.858Z,6.96
2023-12-14T11:20:39.860Z,6.94
2023-12-14T11:21:39.873Z,6.93
2023-12-14T11:22:39.937Z,6.91
2023-12-14T11:23:39.868Z,6.94
2023-12-14T11:24:39.843Z,6.95
2023-12-14T11:25:45.634Z,6.95
2023-12-14T11:26:39.990Z,6.96
2023-12-14T11:27:39.924Z,7.00
2023-12-14T11:28:39.924Z,7.02
2023-12-14T11:29:39.870Z,7.01
2023-12-14T11:30:48.401Z,7.01
2023-12-14T11:31:39.944Z,7.01
2023-12-14T11:32:39.926Z,6.99
2023-12-14T11:33:43.599Z,6.99
2023-12-14T11:34:39.902Z,7.00
2023-12-14T11:35:39.930Z,6.99
2023-12-14T11:36:40.066Z,6.97
2023-12-14T11:37:39.892Z,6.97
2023-12-14T11:38:39.874Z,7.00
2023-12-14T11:39:39.889Z,7.06
2023-12-14T11:40:39.911Z,7.07
2023-12-14T11:41:39.902Z,7.04
2023-12-14T11:42:39.873Z,7.02
2023-12-14T11:43:40.003Z,6.99
2023-12-14T11:44:39.924Z,6.98
2023-12-14T11:45:39.928Z,6.96
2023-12-14T11:46:39.961Z,6.97
2023-12-14T11:47:40.206Z,6.97
2023-12-14T11:48:40.402Z,6.98
2023-12-14T11:49:39.970Z,6.96
2023-12-14T11:50:39.964Z,6.94
2023-12-14T11:51:39.854Z,6.93
2023-12-14T11:52:39.958Z,6.92
2023-12-14T11:54:39.859Z,6.89
2023-12-14T11:55:39.951Z,6.90
2023-12-14T11:56:39.973Z,6.89
2023-12-14T11:57:39.890Z,6.86
2023-12-14T11:58:39.906Z,6.86
2023-12-14T11:59:39.858Z,6.86
2023-12-14T12:00:39.905Z,6.86
2023-12-14T12:01:39.906Z,6.85
2023-12-14T12:02:39.897Z,6.84
2023-12-14T12:03:39.930Z,6.83
2023-12-14T12:04:39.992Z,6.83
2023-12-14T12:05:39.958Z,6.82
2023-12-14T12:06:39.916Z,6.81
2023-12-14T12:07:40.046Z,6.80
2023-12-14T12:08:39.902Z,6.82
2023-12-14T12:09:39.868Z,6.81
2023-12-14T12:10:39.950Z,6.81
2023-12-14T12:11:39.906Z,6.82
2023-12-14T12:12:41.723Z,6.84
2023-12-14T12:13:39.963Z,6.85
2023-12-14T12:14:39.902Z,6.85
2023-12-14T12:15:39.921Z,6.85
2023-12-14T12:16:39.909Z,6.84
2023-12-14T12:17:40.306Z,6.84
2023-12-14T12:18:41.086Z,6.85
2023-12-14T12:19:39.938Z,6.88
2023-12-14T12:20:39.892Z,6.90
2023-12-14T12:21:39.905Z,6.91
2023-12-14T12:22:39.912Z,6.94
2023-12-14T12:23:39.875Z,6.94
2023-12-14T12:24:39.923Z,6.94
2023-12-14T12:25:39.957Z,6.94
2023-12-14T12:26:39.880Z,6.93
2023-12-14T12:27:39.915Z,6.95
2023-12-14T12:28:40.101Z,6.96
2023-12-14T12:29:40.111Z,6.96
2023-12-14T12:31:05.908Z,6.98
2023-12-14T12:32:05.932Z,6.99
2023-12-14T12:33:06.048Z,7.00
2023-12-14T12:34:05.902Z,7.00
2023-12-14T12:35:05.945Z,7.00
2023-12-14T12:36:05.875Z,7.02
2023-12-14T12:37:06.022Z,7.05
2023-12-14T12:38:06.114Z,7.06
2023-12-14T12:39:06.059Z,7.06
2023-12-14T12:40:06.214Z,7.05
2023-12-14T12:41:06.199Z,7.06
2023-12-14T12:42:06.114Z,7.07
2023-12-14T12:43:06.109Z,7.07
2023-12-14T12:44:06.140Z,7.08
2023-12-14T12:45:06.162Z,7.07
2023-12-14T12:46:06.118Z,7.10
2023-12-14T12:47:11.189Z,7.10
2023-12-14T12:48:06.312Z,7.12
2023-12-14T12:49:06.247Z,7.13
2023-12-14T12:50:06.244Z,7.13
2023-12-14T12:51:06.187Z,7.10
2023-12-14T12:52:06.196Z,7.09
2023-12-14T12:53:06.213Z,7.07
2023-12-14T12:54:12.569Z,7.04
2023-12-14T12:55:06.214Z,7.01
2023-12-14T12:56:06.205Z,7.02
2023-12-14T12:57:08.304Z,7.02
2023-12-14T12:58:06.213Z,7.01
2023-12-14T12:59:08.704Z,7.01
2023-12-14T13:00:06.243Z,7.00
2023-12-14T13:01:06.176Z,6.97
2023-12-14T13:02:06.235Z,6.94
2023-12-14T13:03:06.293Z,6.91
2023-12-14T13:04:06.264Z,6.88
2023-12-14T13:05:06.315Z,6.86
2023-12-14T13:06:06.278Z,6.82
2023-12-14T13:07:06.167Z,6.81
2023-12-14T13:08:06.219Z,6.78
2023-12-14T13:09:06.145Z,6.77
2023-12-14T13:10:15.661Z,6.77
2023-12-14T13:11:06.197Z,6.76
2023-12-14T13:12:06.265Z,6.77
2023-12-14T13:13:06.180Z,6.77
2023-12-14T13:14:06.244Z,6.78
2023-12-14T13:15:06.212Z,6.80
2023-12-14T13:16:06.189Z,6.77
2023-12-14T13:17:06.213Z,6.77
2023-12-14T13:18:06.233Z,6.77
2023-12-14T13:19:06.244Z,6.75
2023-12-14T13:20:06.335Z,6.78
2023-12-14T13:21:06.215Z,6.76